Time;durP1;ratioP1;P1;durP2;ratioP2;P2;SDS_P1;SDS_P2;PMS_P1;PMS_P2;Temp;Humidity;BMP_temperature;BMP_pressure;BME280_temperature;BME280_humidity;BME280_pressure;Samples;Min_cycle;Max_cycle;Signal;HPM_P1;HPM_P2
2021/08/25 00:00:28;;;;;;;8.60;3.93;;;;;;;;;;5030251;28;20433;-47
2021/08/25 00:02:54;;;;;;;6.50;3.90;;;;;;;;;;5030391;28;20407;-47
2021/08/25 00:05:20;;;;;;;6.07;4.23;;;;;;;;;;5031570;28;20404;-47
2021/08/25 00:07:46;;;;;;;4.23;3.90;;;;;;;;;;5034537;28;20497;-47
2021/08/25 00:10:12;;;;;;;6.20;4.50;;;;;;;;;;5034229;28;20403;-47
2021/08/25 00:12:38;;;;;;;10.60;4.90;;;;;;;;;;5034269;28;20408;-47
2021/08/25 00:15:06;;;;;;;9.30;6.10;;;;;;;;;;5034430;28;20430;-47
2021/08/25 00:17:32;;;;;;;7.53;5.40;;;;;;;;;;5034092;28;20407;-47
2021/08/25 00:19:58;;;;;;;8.93;5.30;;;;;;;;;;5034118;28;20457;-46
2021/08/25 00:22:24;;;;;;;5.60;5.00;;;;;;;;;;5033763;28;20449;-47
2021/08/25 00:24:50;;;;;;;5.83;5.23;;;;;;;;;;5034004;28;20914;-47
2021/08/25 00:27:16;;;;;;;6.57;4.80;;;;;;;;;;5034058;28;20487;-46
2021/08/25 00:29:42;;;;;;;8.57;6.53;;;;;;;;;;5033982;28;20905;-47
2021/08/25 00:32:08;;;;;;;7.90;5.33;;;;;;;;;;5033502;28;20464;-47
2021/08/25 00:34:34;;;;;;;6.53;5.10;;;;;;;;;;5033863;28;20397;-47
2021/08/25 00:37:00;;;;;;;6.00;5.10;;;;;;;;;;5033844;28;20407;-47
2021/08/25 00:39:26;;;;;;;4.77;4.37;;;;;;;;;;5033922;28;20402;-47
2021/08/25 00:41:52;;;;;;;5.13;4.40;;;;;;;;;;5033668;28;20485;-46
2021/08/25 00:44:18;;;;;;;7.43;4.70;;;;;;;;;;5033762;28;20822;-47
2021/08/25 00:46:45;;;;;;;8.40;4.47;;;;;;;;;;5033604;28;20843;-47
2021/08/25 00:49:12;;;;;;;4.40;3.90;;;;;;;;;;5033541;28;20413;-47
2021/08/25 00:51:38;;;;;;;6.00;4.63;;;;;;;;;;5033653;28;20420;-46
2021/08/25 00:54:04;;;;;;;7.83;4.80;;;;;;;;;;5033471;28;20762;-46
2021/08/25 00:56:32;;;;;;;6.40;4.37;;;;;;;;;;5033505;28;20775;-47
2021/08/25 00:58:58;;;;;;;4.90;4.50;;;;;;;;;;5033484;28;20405;-47
2021/08/25 01:01:39;;;;;;;7.57;4.80;;;;;;;;;;5032746;28;20427;-47
2021/08/25 01:04:19;;;;;;;8.60;4.63;;;;;;;;;;5033025;28;20413;-47
2021/08/25 01:06:46;;;;;;;4.93;4.30;;;;;;;;;;5032979;28;20959;-47
2021/08/25 01:09:12;;;;;;;7.10;4.93;;;;;;;;;;5033206;28;20964;-47
2021/08/25 01:11:43;;;;;;;5.30;4.13;;;;;;;;;;5033029;28;20427;-47
2021/08/25 01:14:09;;;;;;;7.90;4.93;;;;;;;;;;5032974;28;20400;-47
2021/08/25 01:16:38;;;;;;;8.97;5.60;;;;;;;;;;5032105;28;20502;-47
2021/08/25 01:19:04;;;;;;;10.13;5.20;;;;;;;;;;5033072;28;20408;-47
2021/08/25 01:21:30;;;;;;;14.00;5.73;;;;;;;;;;5032761;28;20427;-47
2021/08/25 01:23:56;;;;;;;6.60;5.03;;;;;;;;;;5032927;28;20522;-47
2021/08/25 01:26:22;;;;;;;9.20;5.00;;;;;;;;;;5032926;28;20845;-47
2021/08/25 01:28:51;;;;;;;6.60;5.70;;;;;;;;;;5033072;28;20399;-47
2021/08/25 01:31:18;;;;;;;9.70;5.43;;;;;;;;;;5032983;28;20473;-47
2021/08/25 01:33:44;;;;;;;9.03;5.93;;;;;;;;;;5033363;28;20403;-47
2021/08/25 01:36:14;;;;;;;6.07;4.70;;;;;;;;;;5032876;28;20507;-48
2021/08/25 01:38:54;;;;;;;8.93;5.70;;;;;;;;;;5032820;28;20490;-48
2021/08/25 01:41:21;;;;;;;10.57;5.33;;;;;;;;;;5032406;28;20427;-46
2021/08/25 01:43:48;;;;;;;5.70;4.47;;;;;;;;;;5032681;28;20399;-45
2021/08/25 01:46:21;;;;;;;5.70;4.70;;;;;;;;;;5032526;28;20466;-45
2021/08/25 01:48:47;;;;;;;15.40;5.90;;;;;;;;;;5032485;28;20412;-46
2021/08/25 01:51:12;;;;;;;9.23;4.80;;;;;;;;;;5032190;28;20582;-46
2021/08/25 01:53:38;;;;;;;9.97;5.00;;;;;;;;;;5032527;28;20414;-49
2021/08/25 01:56:04;;;;;;;7.47;5.60;;;;;;;;;;5032621;28;20410;-45
2021/08/25 01:58:30;;;;;;;9.10;6.13;;;;;;;;;;5032283;28;20417;-45
2021/08/25 02:00:56;;;;;;;8.67;5.60;;;;;;;;;;5032057;28;20431;-46
2021/08/25 02:03:22;;;;;;;5.80;4.60;;;;;;;;;;5032255;28;20438;-47
2021/08/25 02:05:48;;;;;;;8.23;5.30;;;;;;;;;;5032280;28;20438;-49
2021/08/25 02:08:14;;;;;;;7.60;5.80;;;;;;;;;;5031991;28;20458;-45
2021/08/25 02:10:41;;;;;;;5.80;5.17;;;;;;;;;;5031923;28;20826;-46
2021/08/25 02:13:07;;;;;;;10.33;5.77;;;;;;;;;;5032100;28;20425;-46
2021/08/25 02:15:33;;;;;;;7.10;5.10;;;;;;;;;;5032029;28;20481;-45
2021/08/25 02:17:59;;;;;;;8.77;6.90;;;;;;;;;;5032016;28;20499;-45
2021/08/25 02:20:25;;;;;;;8.63;6.50;;;;;;;;;;5031592;28;20412;-46
2021/08/25 02:22:51;;;;;;;6.40;5.10;;;;;;;;;;5032186;28;20441;-46
2021/08/25 02:25:17;;;;;;;11.20;7.30;;;;;;;;;;5031843;28;20438;-46
2021/08/25 02:27:43;;;;;;;13.80;6.57;;;;;;;;;;5031800;28;20457;-47
2021/08/25 02:30:09;;;;;;;8.23;6.20;;;;;;;;;;5031481;28;20403;-47
2021/08/25 02:32:35;;;;;;;7.43;5.93;;;;;;;;;;5031604;28;20406;-46
2021/08/25 02:35:01;;;;;;;12.97;5.80;;;;;;;;;;5031622;28;20402;-47
2021/08/25 02:37:27;;;;;;;9.83;6.03;;;;;;;;;;5031527;28;20468;-47
2021/08/25 02:39:53;;;;;;;13.40;6.47;;;;;;;;;;5031747;28;20407;-49
2021/08/25 02:42:19;;;;;;;7.37;5.53;;;;;;;;;;5031229;28;20999;-45
2021/08/25 02:44:45;;;;;;;10.40;6.33;;;;;;;;;;5031393;28;20429;-46
2021/08/25 02:47:12;;;;;;;8.40;5.60;;;;;;;;;;5031426;28;20450;-47
2021/08/25 02:49:38;;;;;;;7.10;5.60;;;;;;;;;;5031417;28;20414;-46
2021/08/25 02:52:04;;;;;;;6.47;5.73;;;;;;;;;;5030957;28;20423;-46
2021/08/25 02:54:30;;;;;;;8.40;5.87;;;;;;;;;;5031634;28;20403;-46
2021/08/25 02:56:56;;;;;;;9.83;6.00;;;;;;;;;;5031384;28;20751;-46
2021/08/25 02:59:22;;;;;;;6.80;5.43;;;;;;;;;;5031252;28;20853;-45
2021/08/25 03:01:48;;;;;;;9.87;5.87;;;;;;;;;;5030999;28;20501;-46
2021/08/25 03:04:15;;;;;;;7.10;6.33;;;;;;;;;;5031303;28;20456;-46
2021/08/25 03:06:41;;;;;;;6.20;5.60;;;;;;;;;;5031125;28;20799;-46
2021/08/25 03:09:07;;;;;;;6.30;5.70;;;;;;;;;;5031349;28;20461;-45
2021/08/25 03:11:34;;;;;;;5.83;5.20;;;;;;;;;;5030883;28;20414;-46
2021/08/25 03:14:00;;;;;;;6.83;5.80;;;;;;;;;;5031070;28;20410;-48
2021/08/25 03:16:26;;;;;;;6.33;5.47;;;;;;;;;;5031257;28;20407;-49
2021/08/25 03:18:52;;;;;;;8.17;6.23;;;;;;;;;;5031149;28;21005;-48
2021/08/25 03:21:18;;;;;;;8.43;5.90;;;;;;;;;;5031272;28;20434;-45
2021/08/25 03:23:44;;;;;;;8.77;5.53;;;;;;;;;;5031164;28;20453;-45
2021/08/25 03:26:10;;;;;;;7.00;5.70;;;;;;;;;;5030869;28;20413;-45
2021/08/25 03:28:36;;;;;;;6.53;5.87;;;;;;;;;;5030862;28;20478;-45
2021/08/25 03:31:02;;;;;;;8.40;6.63;;;;;;;;;;5030521;28;20423;-44
2021/08/25 03:33:28;;;;;;;7.20;6.47;;;;;;;;;;5030841;28;20818;-45
2021/08/25 03:35:54;;;;;;;14.50;6.80;;;;;;;;;;5030681;28;20820;-46
2021/08/25 03:38:19;;;;;;;8.83;6.70;;;;;;;;;;5030825;28;20763;-45
2021/08/25 03:40:45;;;;;;;7.27;6.57;;;;;;;;;;5029776;28;20417;-45
2021/08/25 03:43:11;;;;;;;7.97;5.50;;;;;;;;;;5030664;28;20407;-45
2021/08/25 03:45:37;;;;;;;14.20;6.70;;;;;;;;;;5030612;28;20417;-46
2021/08/25 03:48:03;;;;;;;6.77;6.07;;;;;;;;;;5030536;28;20472;-47
2021/08/25 03:50:29;;;;;;;14.63;6.43;;;;;;;;;;5030171;28;20423;-48
2021/08/25 03:52:55;;;;;;;7.33;6.67;;;;;;;;;;5030741;28;20403;-49
2021/08/25 03:55:22;;;;;;;7.47;6.70;;;;;;;;;;5030506;28;20406;-45
2021/08/25 03:57:48;;;;;;;14.90;7.20;;;;;;;;;;5030603;28;20439;-45
2021/08/25 04:00:14;;;;;;;10.43;6.17;;;;;;;;;;5030716;28;20402;-45
2021/08/25 04:02:40;;;;;;;9.97;6.17;;;;;;;;;;5030262;28;20501;-46
2021/08/25 04:05:07;;;;;;;8.13;7.03;;;;;;;;;;5030603;28;20757;-45
2021/08/25 04:07:33;;;;;;;9.23;6.20;;;;;;;;;;5030445;28;20480;-45
2021/08/25 04:09:59;;;;;;;8.33;6.60;;;;;;;;;;5030354;28;20403;-46
2021/08/25 04:12:25;;;;;;;8.30;6.20;;;;;;;;;;5030112;28;20453;-45
2021/08/25 04:14:51;;;;;;;9.60;6.73;;;;;;;;;;5030404;28;20460;-46
2021/08/25 04:17:17;;;;;;;8.97;6.40;;;;;;;;;;5030722;28;20402;-46
2021/08/25 04:19:43;;;;;;;8.00;6.87;;;;;;;;;;5030314;28;20413;-45
2021/08/25 04:22:08;;;;;;;6.73;6.03;;;;;;;;;;5030095;28;20429;-45
2021/08/25 04:24:36;;;;;;;9.53;7.57;;;;;;;;;;5030208;28;20426;-45
2021/08/25 04:27:02;;;;;;;6.30;5.80;;;;;;;;;;5030235;28;20460;-47
2021/08/25 04:29:28;;;;;;;7.87;6.03;;;;;;;;;;5030714;28;20408;-46
2021/08/25 04:31:54;;;;;;;12.93;6.60;;;;;;;;;;5029789;28;20495;-48
2021/08/25 04:34:20;;;;;;;13.60;7.17;;;;;;;;;;5030234;28;20399;-46
2021/08/25 04:36:46;;;;;;;10.33;7.13;;;;;;;;;;5030159;28;20782;-46
2021/08/25 04:39:12;;;;;;;8.10;6.83;;;;;;;;;;5030156;28;20501;-47
2021/08/25 04:41:38;;;;;;;9.00;7.07;;;;;;;;;;5029806;28;20441;-49
2021/08/25 04:44:04;;;;;;;10.20;7.20;;;;;;;;;;5030223;28;20966;-49
2021/08/25 04:46:30;;;;;;;10.00;6.60;;;;;;;;;;5029921;28;20527;-47
2021/08/25 04:48:56;;;;;;;11.93;7.13;;;;;;;;;;5030237;28;20874;-48
2021/08/25 04:51:22;;;;;;;8.30;6.87;;;;;;;;;;5029697;28;20446;-48
2021/08/25 04:53:48;;;;;;;18.10;7.57;;;;;;;;;;5033255;28;20486;-47
2021/08/25 04:56:14;;;;;;;8.13;6.67;;;;;;;;;;5033565;28;20434;-49
2021/08/25 04:58:40;;;;;;;12.63;7.33;;;;;;;;;;5033888;28;20453;-44
2021/08/25 05:01:07;;;;;;;23.10;7.40;;;;;;;;;;5033476;28;20968;-44
2021/08/25 05:03:34;;;;;;;10.30;6.90;;;;;;;;;;5033791;28;20398;-48
2021/08/25 05:06:00;;;;;;;10.07;7.03;;;;;;;;;;5033626;28;20410;-45
2021/08/25 05:08:27;;;;;;;14.80;7.60;;;;;;;;;;5033533;28;20465;-45
2021/08/25 05:10:53;;;;;;;13.13;7.60;;;;;;;;;;5033041;28;20934;-50
2021/08/25 05:13:19;;;;;;;15.63;9.00;;;;;;;;;;5033743;28;20767;-49
2021/08/25 05:15:48;;;;;;;16.10;9.10;;;;;;;;;;5033223;28;20403;-45
2021/08/25 05:18:14;;;;;;;9.70;7.17;;;;;;;;;;5033263;28;20406;-46
2021/08/25 05:20:40;;;;;;;10.30;7.30;;;;;;;;;;5032776;28;20425;-46
2021/08/25 05:23:06;;;;;;;14.97;7.33;;;;;;;;;;5033257;28;20451;-46
2021/08/25 05:25:32;;;;;;;16.03;7.73;;;;;;;;;;5033286;28;20775;-45
2021/08/25 05:27:58;;;;;;;12.50;7.40;;;;;;;;;;5032981;28;20450;-45
2021/08/25 05:30:24;;;;;;;13.93;8.00;;;;;;;;;;5032475;28;20882;-46
2021/08/25 05:32:53;;;;;;;17.13;8.60;;;;;;;;;;5032872;28;20398;-46
2021/08/25 05:35:20;;;;;;;15.53;7.97;;;;;;;;;;5032773;28;20452;-45
2021/08/25 05:37:46;;;;;;;11.13;7.40;;;;;;;;;;5032805;28;20433;-46
2021/08/25 05:40:13;;;;;;;9.73;7.00;;;;;;;;;;5032548;28;20407;-47
2021/08/25 05:42:39;;;;;;;12.77;6.57;;;;;;;;;;5032595;28;20968;-45
2021/08/25 05:45:06;;;;;;;10.77;6.67;;;;;;;;;;5032677;28;20781;-45
2021/08/25 05:47:31;;;;;;;9.00;6.30;;;;;;;;;;5032544;28;20456;-48
2021/08/25 05:49:57;;;;;;;10.60;8.43;;;;;;;;;;5032632;28;20792;-45
2021/08/25 05:52:23;;;;;;;14.13;6.60;;;;;;;;;;5032184;28;20416;-45
2021/08/25 05:54:49;;;;;;;7.50;6.43;;;;;;;;;;5032465;28;20402;-45
2021/08/25 05:57:15;;;;;;;6.83;6.13;;;;;;;;;;5032107;28;20411;-45
2021/08/25 05:59:41;;;;;;;8.77;7.23;;;;;;;;;;5031936;28;20404;-45
2021/08/25 06:02:07;;;;;;;8.80;7.57;;;;;;;;;;5031468;28;20420;-45
2021/08/25 06:04:33;;;;;;;10.00;7.20;;;;;;;;;;5031385;28;20403;-46
2021/08/25 06:06:59;;;;;;;7.80;7.00;;;;;;;;;;5031695;28;20557;-46
2021/08/25 06:09:25;;;;;;;8.40;7.60;;;;;;;;;;5032256;28;20399;-48
2021/08/25 06:11:51;;;;;;;12.87;7.20;;;;;;;;;;5031676;28;20934;-45
2021/08/25 06:14:17;;;;;;;12.13;7.67;;;;;;;;;;5032142;28;20772;-46
2021/08/25 06:16:43;;;;;;;15.17;7.87;;;;;;;;;;5031934;28;20415;-46
2021/08/25 06:19:10;;;;;;;10.90;8.03;;;;;;;;;;5031946;28;20464;-49
2021/08/25 06:21:36;;;;;;;15.23;11.13;;;;;;;;;;5031498;28;20514;-45
2021/08/25 06:24:02;;;;;;;21.10;11.00;;;;;;;;;;5031889;28;20521;-45
2021/08/25 06:26:28;;;;;;;22.03;10.53;;;;;;;;;;5032093;28;20413;-48
2021/08/25 06:28:54;;;;;;;18.40;9.77;;;;;;;;;;5031838;28;20413;-45
2021/08/25 06:31:21;;;;;;;16.23;9.30;;;;;;;;;;5026784;28;20436;-45
2021/08/25 06:33:47;;;;;;;11.50;9.10;;;;;;;;;;5026005;28;20422;-47
2021/08/25 06:36:13;;;;;;;15.60;9.27;;;;;;;;;;5032677;28;20408;-49
2021/08/25 06:38:39;;;;;;;14.57;9.30;;;;;;;;;;5018094;28;20420;-47
2021/08/25 06:41:05;;;;;;;12.03;8.30;;;;;;;;;;5011102;28;20440;-47
2021/08/25 06:43:31;;;;;;;11.20;7.73;;;;;;;;;;5010421;28;20423;-47
2021/08/25 06:45:57;;;;;;;13.57;8.10;;;;;;;;;;5011922;28;20410;-47
2021/08/25 06:48:23;;;;;;;16.30;7.83;;;;;;;;;;5011824;28;20463;-46
2021/08/25 06:50:49;;;;;;;10.20;7.70;;;;;;;;;;5011517;28;20528;-47
2021/08/25 06:53:15;;;;;;;9.23;7.60;;;;;;;;;;5011575;28;20410;-47
2021/08/25 06:55:41;;;;;;;11.83;7.03;;;;;;;;;;5011535;28;20378;-47
2021/08/25 06:58:07;;;;;;;11.20;7.57;;;;;;;;;;5011529;28;20413;-47
2021/08/25 07:00:33;;;;;;;14.40;8.30;;;;;;;;;;5011238;28;20417;-46
2021/08/25 07:02:59;;;;;;;12.93;7.00;;;;;;;;;;5011476;28;20437;-47
2021/08/25 07:05:25;;;;;;;10.13;7.00;;;;;;;;;;5011475;28;20395;-47
2021/08/25 07:07:51;;;;;;;8.77;6.90;;;;;;;;;;5011310;28;20461;-47
2021/08/25 07:10:17;;;;;;;8.40;7.50;;;;;;;;;;5011090;28;20406;-47
2021/08/25 07:12:43;;;;;;;12.13;8.10;;;;;;;;;;5011340;28;20827;-47
2021/08/25 07:15:16;;;;;;;20.20;9.37;;;;;;;;;;5010666;28;20381;-47
2021/08/25 07:17:41;;;;;;;11.70;9.17;;;;;;;;;;5011286;28;20410;-47
2021/08/25 07:20:08;;;;;;;14.90;8.60;;;;;;;;;;5011275;28;20403;-47
2021/08/25 07:22:34;;;;;;;18.00;9.13;;;;;;;;;;5010936;28;20400;-48
2021/08/25 07:25:00;;;;;;;13.80;7.23;;;;;;;;;;5011102;28;20933;-47
2021/08/25 07:30:02;;;;;;;10.67;7.30;;;;;;;;;;5580693;23;20473;-47
2021/08/25 07:32:28;;;;;;;9.90;6.13;;;;;;;;;;5029436;28;20406;-48
2021/08/25 07:34:54;;;;;;;9.23;5.93;;;;;;;;;;5030806;28;20878;-48
2021/08/25 07:37:20;;;;;;;13.33;6.30;;;;;;;;;;5030983;28;20912;-47
2021/08/25 07:39:46;;;;;;;8.47;6.07;;;;;;;;;;5030583;28;20429;-47
2021/08/25 07:42:12;;;;;;;15.70;6.73;;;;;;;;;;5030887;28;20433;-49
2021/08/25 07:44:38;;;;;;;10.07;5.87;;;;;;;;;;5063485;22;20548;-50
2021/08/25 07:47:04;;;;;;;11.30;6.17;;;;;;;;;;5030246;28;20475;-49
2021/08/25 07:49:31;;;;;;;9.70;5.80;;;;;;;;;;5030382;28;20462;-50
2021/08/25 07:51:58;;;;;;;11.43;4.97;;;;;;;;;;5030855;28;20889;-47
2021/08/25 07:54:24;;;;;;;11.87;5.90;;;;;;;;;;5030526;28;20980;-49
2021/08/25 07:56:50;;;;;;;10.27;5.70;;;;;;;;;;5030590;28;20406;-49
2021/08/25 07:59:16;;;;;;;14.60;5.60;;;;;;;;;;5030366;28;20406;-47
2021/08/25 08:01:42;;;;;;;8.40;5.93;;;;;;;;;;5030263;28;20425;-46
2021/08/25 08:04:08;;;;;;;8.83;5.37;;;;;;;;;;5030370;28;20429;-47
2021/08/25 08:06:34;;;;;;;6.83;4.83;;;;;;;;;;5030583;28;20521;-47
2021/08/25 08:09:01;;;;;;;8.90;5.07;;;;;;;;;;5030514;28;20414;-47
2021/08/25 08:11:27;;;;;;;7.90;4.50;;;;;;;;;;5030296;28;20889;-51
2021/08/25 08:13:53;;;;;;;5.63;4.30;;;;;;;;;;5030415;28;20433;-48
2021/08/25 08:16:20;;;;;;;9.27;5.60;;;;;;;;;;5030312;28;20202;-48
2021/08/25 08:21:42;;;;;;;6.47;5.03;;;;;;;;;;5016720;28;20910;-46
2021/08/25 08:24:08;;;;;;;9.03;4.90;;;;;;;;;;5030622;28;20475;-46
2021/08/25 08:26:34;;;;;;;8.80;5.43;;;;;;;;;;5031625;28;20512;-46
2021/08/25 08:29:00;;;;;;;6.67;5.00;;;;;;;;;;5033813;28;20522;-47
2021/08/25 08:31:27;;;;;;;6.23;4.60;;;;;;;;;;5033913;28;20446;-47
2021/08/25 08:33:53;;;;;;;9.73;4.30;;;;;;;;;;5034676;28;20505;-47
2021/08/25 08:36:19;;;;;;;4.77;4.00;;;;;;;;;;5005041;28;20948;-48
2021/08/25 08:38:45;;;;;;;5.63;4.50;;;;;;;;;;5014297;28;20803;-48
2021/08/25 08:41:11;;;;;;;10.30;4.67;;;;;;;;;;5013665;28;20965;-49
2021/08/25 08:43:49;;;;;;;4.50;4.10;;;;;;;;;;5013700;28;20422;-46
2021/08/25 08:46:16;;;;;;;5.90;4.77;;;;;;;;;;5013899;28;20410;-47
2021/08/25 08:48:42;;;;;;;9.77;4.20;;;;;;;;;;5013877;28;20450;-47
2021/08/25 08:51:12;;;;;;;4.87;4.13;;;;;;;;;;5036885;28;20467;-46
2021/08/25 08:53:38;;;;;;;4.90;4.10;;;;;;;;;;5033308;28;20484;-47
2021/08/25 08:56:04;;;;;;;6.27;4.57;;;;;;;;;;5033968;28;20438;-47
2021/08/25 08:58:30;;;;;;;7.77;4.10;;;;;;;;;;5033188;28;20485;-47
2021/08/25 09:00:56;;;;;;;5.13;4.40;;;;;;;;;;5033112;28;20418;-47
2021/08/25 09:03:23;;;;;;;6.90;4.43;;;;;;;;;;5033308;28;20406;-47
2021/08/25 09:05:53;;;;;;;6.43;4.20;;;;;;;;;;5033501;28;20409;-49
2021/08/25 09:11:07;;;;;;;8.27;3.90;;;;;;;;;;5181196;23;20500;-47
2021/08/25 09:13:38;;;;;;;6.57;3.80;;;;;;;;;;5034586;28;20870;-49
2021/08/25 09:16:04;;;;;;;6.47;4.40;;;;;;;;;;5034388;28;20932;-48
2021/08/25 09:18:30;;;;;;;11.97;4.77;;;;;;;;;;5034455;28;20402;-47
2021/08/25 09:20:57;;;;;;;6.80;4.90;;;;;;;;;;5033851;28;20422;-47
2021/08/25 09:23:24;;;;;;;7.60;3.97;;;;;;;;;;5034965;28;20430;-50
2021/08/25 09:25:51;;;;;;;10.70;4.90;;;;;;;;;;5033988;28;20410;-49
2021/08/25 09:28:19;;;;;;;5.73;4.20;;;;;;;;;;5034114;28;20454;-50
2021/08/25 09:30:51;;;;;;;6.43;3.80;;;;;;;;;;5033709;28;20433;-49
2021/08/25 09:33:18;;;;;;;7.10;4.00;;;;;;;;;;5034377;28;20395;-50
2021/08/25 09:35:44;;;;;;;4.70;4.20;;;;;;;;;;5034012;28;20412;-50
2021/08/25 09:38:17;;;;;;;11.13;5.00;;;;;;;;;;5033071;28;20413;-50
2021/08/25 09:40:47;;;;;;;13.00;4.37;;;;;;;;;;5032633;28;20513;-49
2021/08/25 09:43:13;;;;;;;13.63;4.63;;;;;;;;;;5033879;28;20433;-50
2021/08/25 09:45:39;;;;;;;9.93;5.20;;;;;;;;;;5033612;28;20793;-50
2021/08/25 09:48:05;;;;;;;20.43;6.70;;;;;;;;;;5033753;28;20957;-50
2021/08/25 09:50:31;;;;;;;4.67;4.13;;;;;;;;;;5032946;28;20421;-49
2021/08/25 09:52:57;;;;;;;6.60;4.20;;;;;;;;;;5033672;28;20395;-50
2021/08/25 09:55:33;;;;;;;6.83;4.00;;;;;;;;;;5033820;28;20394;-49
2021/08/25 09:58:00;;;;;;;4.70;4.20;;;;;;;;;;5033517;28;20402;-50
2021/08/25 10:00:26;;;;;;;12.97;4.27;;;;;;;;;;5032836;28;20475;-50
2021/08/25 10:02:53;;;;;;;9.80;4.50;;;;;;;;;;5033325;28;20403;-50
2021/08/25 10:05:25;;;;;;;7.33;3.97;;;;;;;;;;5033698;28;20421;-48
2021/08/25 10:07:52;;;;;;;7.93;4.90;;;;;;;;;;5033210;28;20457;-49
2021/08/25 10:10:18;;;;;;;7.70;4.90;;;;;;;;;;5032574;28;20426;-48
2021/08/25 10:12:44;;;;;;;7.17;5.10;;;;;;;;;;5033074;28;20425;-50
2021/08/25 10:15:28;;;;;;;5.70;4.27;;;;;;;;;;5033304;28;20398;-50
2021/08/25 10:17:54;;;;;;;7.13;4.60;;;;;;;;;;5033333;28;20433;-50
2021/08/25 10:20:20;;;;;;;7.33;4.50;;;;;;;;;;5032425;28;20453;-51
2021/08/25 10:22:49;;;;;;;5.80;4.20;;;;;;;;;;5032909;28;20402;-50
2021/08/25 10:25:15;;;;;;;8.03;4.70;;;;;;;;;;5033033;28;20405;-51
2021/08/25 10:28:00;;;;;;;6.70;4.30;;;;;;;;;;5032879;28;20453;-51
2021/08/25 10:30:26;;;;;;;5.57;4.30;;;;;;;;;;5032158;28;20760;-51
2021/08/25 10:32:52;;;;;;;7.43;3.70;;;;;;;;;;5032846;28;20452;-50
2021/08/25 10:35:18;;;;;;;6.93;4.13;;;;;;;;;;5032819;28;20406;-50
2021/08/25 10:37:45;;;;;;;8.60;4.70;;;;;;;;;;5032628;28;20180;-50
2021/08/25 10:40:12;;;;;;;4.57;3.47;;;;;;;;;;5031910;28;20464;-49
2021/08/25 10:42:52;;;;;;;5.97;5.00;;;;;;;;;;5033299;28;20457;-50
2021/08/25 10:45:36;;;;;;;8.60;5.33;;;;;;;;;;5032796;28;20481;-48
2021/08/25 10:48:03;;;;;;;5.00;3.97;;;;;;;;;;5032462;28;20901;-50
2021/08/25 10:50:48;;;;;;;6.37;4.73;;;;;;;;;;5031725;28;20422;-50
2021/08/25 10:53:37;;;;;;;5.70;4.00;;;;;;;;;;5032444;28;20402;-50
2021/08/25 10:56:11;;;;;;;7.40;3.97;;;;;;;;;;5024668;28;20505;-49
2021/08/25 10:58:50;;;;;;;5.13;4.20;;;;;;;;;;5032316;28;20406;-48
2021/08/25 11:01:20;;;;;;;6.43;3.80;;;;;;;;;;5032034;28;20402;-47
2021/08/25 11:03:49;;;;;;;6.03;4.07;;;;;;;;;;5032651;28;20407;-50
2021/08/25 11:06:34;;;;;;;6.23;3.73;;;;;;;;;;5032175;28;20409;-49
2021/08/25 11:09:09;;;;;;;3.40;3.10;;;;;;;;;;5031745;28;20509;-51
2021/08/25 11:11:35;;;;;;;5.30;3.83;;;;;;;;;;5032054;28;20402;-49
2021/08/25 11:14:01;;;;;;;10.30;3.77;;;;;;;;;;5028567;28;20402;-48
2021/08/25 11:16:27;;;;;;;4.57;3.70;;;;;;;;;;5012222;28;20483;-49
2021/08/25 11:18:54;;;;;;;4.17;3.77;;;;;;;;;;5011747;28;20521;-49
2021/08/25 11:21:20;;;;;;;4.23;3.83;;;;;;;;;;5011774;28;20494;-50
2021/08/25 11:23:53;;;;;;;4.63;3.50;;;;;;;;;;5012145;28;20407;-48
2021/08/25 11:26:19;;;;;;;4.60;3.47;;;;;;;;;;5012111;28;20415;-50
2021/08/25 11:28:45;;;;;;;7.57;4.60;;;;;;;;;;5011865;28;20468;-50
2021/08/25 11:31:11;;;;;;;6.77;4.43;;;;;;;;;;5011661;28;20411;-48
2021/08/25 11:33:44;;;;;;;3.93;3.40;;;;;;;;;;5012129;28;20439;-49
2021/08/25 11:36:10;;;;;;;4.63;4.00;;;;;;;;;;5012124;28;20400;-50
2021/08/25 11:38:36;;;;;;;7.77;4.30;;;;;;;;;;5011937;28;20965;-49
2021/08/25 11:41:02;;;;;;;7.73;3.80;;;;;;;;;;5011175;28;20422;-51
2021/08/25 11:43:28;;;;;;;5.00;3.90;;;;;;;;;;5012164;28;20911;-50
2021/08/25 11:45:55;;;;;;;6.17;3.90;;;;;;;;;;5009479;28;20418;-49
2021/08/25 11:48:28;;;;;;;6.63;3.60;;;;;;;;;;5011706;28;21037;-50
2021/08/25 11:50:55;;;;;;;3.47;3.10;;;;;;;;;;5011201;28;20501;-49
2021/08/25 11:53:25;;;;;;;7.40;4.67;;;;;;;;;;5011887;28;20493;-50
2021/08/25 11:55:52;;;;;;;5.97;4.50;;;;;;;;;;5011731;28;20407;-49
2021/08/25 11:58:22;;;;;;;5.43;4.10;;;;;;;;;;5011903;28;20406;-49
2021/08/25 12:00:48;;;;;;;6.97;4.10;;;;;;;;;;5011170;28;20450;-49
2021/08/25 12:03:14;;;;;;;4.40;3.60;;;;;;;;;;5015412;28;20413;-50
2021/08/25 12:05:50;;;;;;;4.10;3.60;;;;;;;;;;5015684;28;20493;-50
2021/08/25 12:08:16;;;;;;;5.67;4.50;;;;;;;;;;5015887;28;20524;-50
2021/08/25 12:10:46;;;;;;;8.23;4.63;;;;;;;;;;5014929;28;20929;-50
2021/08/25 12:13:30;;;;;;;4.90;4.23;;;;;;;;;;5015821;28;20929;-49
2021/08/25 12:15:57;;;;;;;7.27;4.30;;;;;;;;;;5015538;28;20411;-48
2021/08/25 12:18:24;;;;;;;5.67;3.93;;;;;;;;;;5015743;28;20498;-49
2021/08/25 12:20:51;;;;;;;4.30;3.63;;;;;;;;;;5014758;28;20426;-50
2021/08/25 12:23:18;;;;;;;4.17;3.77;;;;;;;;;;5015477;28;20410;-49
2021/08/25 12:25:46;;;;;;;6.10;4.50;;;;;;;;;;5014703;28;20411;-49
2021/08/25 12:28:13;;;;;;;5.43;4.10;;;;;;;;;;5015385;28;20866;-50
2021/08/25 12:30:40;;;;;;;8.33;3.50;;;;;;;;;;5014669;28;20427;-51
2021/08/25 12:33:06;;;;;;;6.03;3.67;;;;;;;;;;5015316;28;20914;-50
2021/08/25 12:35:33;;;;;;;5.27;4.37;;;;;;;;;;5015228;28;20458;-50
2021/08/25 12:38:00;;;;;;;4.00;3.60;;;;;;;;;;5014994;28;20403;-51
2021/08/25 12:40:26;;;;;;;4.70;4.13;;;;;;;;;;5014326;28;20418;-50
2021/08/25 12:42:53;;;;;;;5.30;4.30;;;;;;;;;;5015075;28;20407;-50
2021/08/25 12:45:22;;;;;;;5.33;3.60;;;;;;;;;;5015300;28;20410;-49
2021/08/25 12:47:48;;;;;;;5.97;3.70;;;;;;;;;;5014964;28;20823;-51
2021/08/25 12:50:15;;;;;;;5.63;4.33;;;;;;;;;;5014302;28;20427;-50
2021/08/25 12:52:41;;;;;;;4.07;3.47;;;;;;;;;;5014850;28;20962;-50
2021/08/25 12:55:09;;;;;;;4.63;3.97;;;;;;;;;;5014694;28;20408;-49
2021/08/25 12:57:35;;;;;;;6.03;3.77;;;;;;;;;;5014979;28;20407;-49
2021/08/25 13:00:01;;;;;;;7.93;4.00;;;;;;;;;;5014196;28;20887;-49
2021/08/25 13:02:27;;;;;;;5.33;4.17;;;;;;;;;;5014622;28;20431;-51
2021/08/25 13:04:53;;;;;;;5.87;4.10;;;;;;;;;;5014667;28;20767;-51
2021/08/25 13:07:19;;;;;;;7.20;4.60;;;;;;;;;;5014613;28;20458;-51
2021/08/25 13:09:45;;;;;;;7.70;4.70;;;;;;;;;;5013840;28;20430;-49
2021/08/25 13:12:11;;;;;;;5.10;4.33;;;;;;;;;;5013784;28;20474;-51
2021/08/25 13:14:37;;;;;;;5.50;4.37;;;;;;;;;;5013957;28;20403;-50
2021/08/25 13:17:03;;;;;;;5.97;4.33;;;;;;;;;;5014438;28;20944;-50
2021/08/25 13:19:29;;;;;;;6.33;3.80;;;;;;;;;;5013685;28;20427;-49
2021/08/25 13:21:55;;;;;;;5.57;4.50;;;;;;;;;;5014466;28;20485;-50
2021/08/25 13:24:20;;;;;;;4.73;4.23;;;;;;;;;;5014153;28;20502;-50
2021/08/25 13:26:46;;;;;;;4.20;3.80;;;;;;;;;;5014257;28;20518;-50
2021/08/25 13:29:12;;;;;;;5.63;4.53;;;;;;;;;;5013736;28;20477;-50
2021/08/25 13:31:38;;;;;;;6.70;4.80;;;;;;;;;;5013934;28;20431;-50
2021/08/25 13:34:04;;;;;;;6.43;4.47;;;;;;;;;;5014091;28;20475;-49
2021/08/25 13:36:30;;;;;;;7.20;4.23;;;;;;;;;;4996084;28;20406;-50
2021/08/25 13:38:56;;;;;;;6.63;3.87;;;;;;;;;;5013818;28;20485;-50
2021/08/25 13:41:22;;;;;;;7.03;4.20;;;;;;;;;;5013556;28;20466;-50
2021/08/25 13:43:48;;;;;;;4.73;4.03;;;;;;;;;;5014073;28;20537;-49
2021/08/25 13:46:14;;;;;;;7.77;3.90;;;;;;;;;;5014020;28;20888;-50
2021/08/25 13:48:40;;;;;;;4.00;3.60;;;;;;;;;;5013802;28;20451;-50
2021/08/25 13:51:06;;;;;;;7.27;3.63;;;;;;;;;;5013248;28;20440;-51
2021/08/25 13:53:33;;;;;;;4.83;4.20;;;;;;;;;;5013862;28;20411;-50
2021/08/25 13:55:58;;;;;;;5.37;3.60;;;;;;;;;;5013886;28;20403;-50
2021/08/25 13:58:24;;;;;;;5.73;4.13;;;;;;;;;;5013905;28;20403;-51
2021/08/25 14:00:50;;;;;;;10.47;4.23;;;;;;;;;;5012843;28;20463;-51
2021/08/25 14:03:16;;;;;;;5.43;3.97;;;;;;;;;;5013658;28;20450;-51
2021/08/25 14:05:42;;;;;;;4.47;4.07;;;;;;;;;;5013687;28;20450;-49
2021/08/25 14:08:09;;;;;;;6.07;3.80;;;;;;;;;;5013565;28;20970;-50
2021/08/25 14:10:35;;;;;;;5.03;3.47;;;;;;;;;;5012792;28;20422;-49
2021/08/25 14:13:01;;;;;;;6.23;3.80;;;;;;;;;;5013248;28;20419;-50
2021/08/25 14:15:33;;;;;;;5.43;3.40;;;;;;;;;;5013761;28;20490;-51
2021/08/25 14:18:00;;;;;;;6.07;3.50;;;;;;;;;;5013466;28;20630;-50
2021/08/25 14:20:26;;;;;;;4.23;3.60;;;;;;;;;;5012612;28;20946;-50
2021/08/25 14:22:52;;;;;;;4.47;3.30;;;;;;;;;;5013272;28;20446;-50
2021/08/25 14:25:18;;;;;;;4.80;3.60;;;;;;;;;;5013032;28;20502;-50
2021/08/25 14:27:44;;;;;;;6.63;4.30;;;;;;;;;;5013234;28;20462;-49
2021/08/25 14:30:10;;;;;;;3.50;3.20;;;;;;;;;;5012522;28;20481;-50
2021/08/25 14:32:36;;;;;;;4.90;3.70;;;;;;;;;;5013042;28;20404;-50
2021/08/25 14:35:02;;;;;;;4.60;3.33;;;;;;;;;;5013108;28;20491;-49
2021/08/25 14:37:28;;;;;;;3.90;3.50;;;;;;;;;;5013104;28;20887;-48
2021/08/25 14:39:54;;;;;;;3.47;3.17;;;;;;;;;;5012380;28;20419;-50
2021/08/25 14:42:20;;;;;;;3.87;3.37;;;;;;;;;;5012668;28;20425;-50
2021/08/25 14:44:46;;;;;;;3.77;3.30;;;;;;;;;;5013007;28;20399;-50
2021/08/25 14:47:12;;;;;;;4.37;3.63;;;;;;;;;;5012807;28;20450;-51